Alfonso Bonilla Aragon International Airport


Codes: SKCL/CLO
Name: Alfonso Bonilla Aragon International Airport
City: Cali
Country: Colombia
Elevation: 3162 ft.
Wikipedia:

Photos at Alfonso Bonilla Aragon International Airport


   Photos courtesy of SpottingLog. You can add your own sightings and photos by signing up for a free trial today.



No photos found.

Weather at Alfonso Bonilla Aragon International Airport


Time (UTC)DescriptionTempratureWindCloud coverageVisibilityPressureHumidity
15-Apr-2024 18:00Light Rain29°C4 mph, NW42%10000m1013hPa56%
15-Apr-2024 21:00Light Rain27°C2 mph, NE59%10000m1010hPa69%
16-Apr-2024 00:00Moderate Rain22°C2 mph, E88%10000m1011hPa91%
16-Apr-2024 03:00Light Rain21°C2 mph, E100%10000m1013hPa93%
16-Apr-2024 06:00Light Rain20°C2 mph, NE100%10000m1012hPa94%
16-Apr-2024 09:00Light Rain20°C2 mph, NE100%10000m1012hPa92%
16-Apr-2024 12:00Light Rain21°C2 mph, NE100%10000m1013hPa87%
16-Apr-2024 15:00Overcast Clouds26°C2 mph, SW94%10000m1013hPa70%
16-Apr-2024 18:00Overcast Clouds32°C2 mph, NW97%10000m1007hPa44%
16-Apr-2024 21:00Overcast Clouds31°C4 mph, NW100%10000m1005hPa48%
17-Apr-2024 00:00Light Rain23°C4 mph, NW95%10000m1009hPa87%
17-Apr-2024 03:00Light Rain22°C2 mph, N100%10000m1012hPa88%
17-Apr-2024 06:00Light Rain22°C0 mph, E100%10000m1011hPa87%
17-Apr-2024 09:00Light Rain21°C2 mph, NE99%10000m1011hPa89%
17-Apr-2024 12:00Light Rain21°C2 mph, NE99%10000m1013hPa87%
17-Apr-2024 15:00Light Rain26°C0 mph, SW91%10000m1013hPa72%
17-Apr-2024 18:00Light Rain30°C2 mph, NW86%10000m1009hPa53%
17-Apr-2024 21:00Light Rain26°C7 mph, NW100%10000m1007hPa72%
18-Apr-2024 00:00Moderate Rain22°C4 mph, NW100%10000m1010hPa92%
18-Apr-2024 03:00Heavy Intensity Rain21°C2 mph, SW100%5860m1013hPa97%
18-Apr-2024 06:00Light Rain21°C0 mph, NE100%10000m1012hPa96%
18-Apr-2024 09:00Light Rain20°C2 mph, SE100%8630m1012hPa97%
18-Apr-2024 12:00Light Rain20°C0 mph, SE100%10000m1014hPa98%
18-Apr-2024 15:00Light Rain21°C2 mph, SW100%10000m1015hPa93%
18-Apr-2024 18:00Light Rain21°C0 mph, W100%9849m1014hPa93%
18-Apr-2024 21:00Moderate Rain21°C2 mph, E100%3710m1013hPa95%
19-Apr-2024 00:00Moderate Rain20°C2 mph, NE100%10000m1015hPa98%
19-Apr-2024 03:00Light Rain20°C0 mph, E100%10000m1017hPa98%
19-Apr-2024 06:00Overcast Clouds19°C2 mph, S100%10000m1015hPa98%
19-Apr-2024 09:00Overcast Clouds19°C0 mph, SE100%10000m1014hPa96%
19-Apr-2024 12:00Overcast Clouds19°C0 mph, SW100%10000m1015hPa95%
19-Apr-2024 15:00Overcast Clouds25°C0 mph, W100%10000m1014hPa69%
19-Apr-2024 18:00Light Rain29°C2 mph, S100%10000m1011hPa51%
19-Apr-2024 21:00Light Rain27°C7 mph, NW97%10000m1009hPa62%
20-Apr-2024 00:00Light Rain21°C4 mph, NW99%10000m1013hPa91%
20-Apr-2024 03:00Light Rain21°C2 mph, N100%10000m1015hPa92%
20-Apr-2024 06:00Overcast Clouds20°C2 mph, N100%10000m1014hPa92%
20-Apr-2024 09:00Light Rain20°C2 mph, NE100%10000m1014hPa93%
20-Apr-2024 12:00Light Rain20°C2 mph, S100%10000m1015hPa91%
20-Apr-2024 15:00Overcast Clouds24°C0 mph, SW100%10000m1015hPa78%